»·PEaware :: N5636R KSMX-KBFL

N5636R :: KSMX-KBFL

FLIGHT INFORMATION

Flight Status: Arrived
Operator: Privately registered:
United States
More flights under this callsign
Pilot: Mark J. (20605)
Aircraft: CESSNA 172 SKYHAWK
(C172)
More flights by this aircraft type
Origin: KSMX Santa Maria Pub/Capt Hancock
United States
Destination: KBFL Meadows
United States
More flights between these airports :: More routes between these airports
Route: +
File this flight plan on PilotEdge
Remarks: CAT-5 Rating
Altitude:
(Current/Filed)
7,500ft
Speed:
(Current/Filed)
110kts
Departed: 08-Oct-18 06:29 PM
Arrived: 08-Oct-18 07:14 PM
Distance/Time
Traveled:
76nm/0:45
Distance/Time
To Go:
Arrived

Flight Plot

Page will automatically refresh every two minutes.


Map Options




Map Legend


Flown Route
Filed Route
Departure Airport
Arrival Airport
Navaid (VOR, NDB)
Fix

Horizontal Profiles

Position Reports

Time Latitude Longitude Heading Altitude Ground
Speed
08-Oct-18 18:23 34.900930 -120.450829 0 265ft 0kts
08-Oct-18 18:24 34.900057 -120.450680 266 265ft 3kts
08-Oct-18 18:25 34.899819 -120.451110 224 265ft 0kts
08-Oct-18 18:26 34.897846 -120.449340 134 265ft 17kts
08-Oct-18 18:27 34.894372 -120.445187 132 265ft 12kts
08-Oct-18 18:28 34.893319 -120.444644 291 265ft 0kts
08-Oct-18 18:29 34.893295 -120.444952 180 265ft 6kts
08-Oct-18 18:30 34.892682 -120.445597 294 265ft 13kts
08-Oct-18 18:31 34.906715 -120.462386 316 669ft 93kts
08-Oct-18 18:32 34.923554 -120.454213 80 1409ft 93kts
08-Oct-18 18:33 34.929936 -120.423348 70 2110ft 94kts
08-Oct-18 18:34 34.942190 -120.394876 67 2785ft 95kts
08-Oct-18 18:35 34.952233 -120.364710 66 3436ft 96kts
08-Oct-18 18:36 34.962757 -120.333229 69 3926ft 106kts
08-Oct-18 18:37 34.971026 -120.298076 77 4316ft 111kts
08-Oct-18 18:38 34.977135 -120.263182 81 4988ft 95kts
08-Oct-18 18:39 34.985701 -120.233310 63 5656ft 98kts
08-Oct-18 18:40 34.998151 -120.204234 55 6296ft 96kts
08-Oct-18 18:41 35.010777 -120.175350 63 6902ft 97kts
08-Oct-18 18:42 35.022809 -120.145721 63 7478ft 98kts
08-Oct-18 18:43 35.035772 -120.112978 63 7659ft 117kts
08-Oct-18 18:44 35.050608 -120.076151 65 7661ft 124kts
08-Oct-18 18:45 35.065626 -120.037846 63 7571ft 125kts
08-Oct-18 18:46 35.082120 -120.000320 62 7481ft 125kts
08-Oct-18 18:47 35.096400 -119.963207 64 7557ft 119kts
08-Oct-18 18:48 35.110495 -119.926645 66 7602ft 119kts
08-Oct-18 18:49 35.123905 -119.889554 66 7647ft 119kts
08-Oct-18 18:50 35.136828 -119.852195 60 7647ft 119kts
08-Oct-18 18:51 35.151495 -119.815701 64 7655ft 119kts
08-Oct-18 18:52 35.165219 -119.778726 61 7659ft 119kts
08-Oct-18 18:53 35.189360 -119.751447 35 7657ft 119kts
08-Oct-18 18:54 35.205369 -119.717752 82 7644ft 119kts
08-Oct-18 18:55 35.217007 -119.679880 65 7651ft 119kts
08-Oct-18 18:56 35.230131 -119.642513 65 7636ft 121kts
08-Oct-18 18:57 35.244039 -119.603702 67 7351ft 125kts
08-Oct-18 18:58 35.256858 -119.563847 66 7060ft 125kts
08-Oct-18 18:59 35.270404 -119.523516 68 6660ft 128kts
08-Oct-18 19:00 35.281134 -119.479849 71 5952ft 137kts
08-Oct-18 19:01 35.293784 -119.434786 72 4786ft 143kts
08-Oct-18 19:02 35.302089 -119.388012 72 3694ft 136kts
08-Oct-18 19:03 35.315933 -119.350798 58 3660ft 115kts
08-Oct-18 19:04 35.332358 -119.317088 62 3582ft 117kts
08-Oct-18 19:05 35.346772 -119.281354 65 3508ft 116kts
08-Oct-18 19:06 35.359610 -119.244537 63 3374ft 117kts
08-Oct-18 19:07 35.373994 -119.208697 62 3236ft 117kts
08-Oct-18 19:08 35.390079 -119.174529 56 3152ft 115kts
08-Oct-18 19:09 35.408090 -119.141267 59 2943ft 118kts
08-Oct-18 19:10 35.423628 -119.106056 63 2213ft 118kts
08-Oct-18 19:11 35.432441 -119.071764 130 1565ft 104kts
08-Oct-18 19:12 35.410575 -119.052169 143 1276ft 82kts
08-Oct-18 19:13 35.406804 -119.030643 47 926ft 64kts
08-Oct-18 19:14 35.420879 -119.040634 315 737ft 65kts
08-Oct-18 19:15 35.433768 -119.056053 317 510ft 57kts
08-Oct-18 19:16 35.438188 -119.059997 69 510ft 0kts
08-Oct-18 19:17 35.436247 -119.056892 134 510ft 29kts
08-Oct-18 19:18 35.435388 -119.053511 49 510ft 10kts
08-Oct-18 19:19 35.435749 -119.052747 178 510ft 0kts
08-Oct-18 19:20 35.435695 -119.052748 179 510ft 0kts
08-Oct-18 19:21 35.435695 -119.052748 179 510ft 0kts
08-Oct-18 19:22 35.435695 -119.052748 179 510ft 0kts

Navigation Log

Ident Type
Flight plan parsing failed, navigation log unavailable